MV Moseldijk — PBWK — position and weather

sailwx.info

Track history (hours):
 
Tides and Currents Weather Stations Pressure Air Temp Water Temp Dewpoint Dewpoint Depression Visibility Wind Speed Wind Dir Waves Ship Positions

MV Moseldijk

Last reported at 2015-Jul-07 13:11 UTC. Time now 2015-Jul-08 04:23 UTC.
Position N 38°02' E 023°35'.

Length 90 m; draft 5.8 m.

Type: Cargo ship. MMSI: 246644000.

Date/timePositionNaut miles runAvg speedWind from/ knotsBaromVisibWave heightAir tempDewpointWater temp
2015-Jul-07 13:11N 38°02' E 023°35'0 0.0
2015-Jul-07 04:17N 38°02' E 023°35'0 0.0
2015-Jul-07 03:32N 38°02' E 023°35'0 0.0
2015-Jul-07 01:32N 38°02' E 023°35'0 0.0
2015-Jul-07 00:29N 38°02' E 023°35'0 0.0
2015-Jul-06 23:26N 38°02' E 023°35'0 0.0
2015-Jul-06 20:26N 38°02' E 023°35'0 0.0
2015-Jul-06 19:26N 38°02' E 023°35'0 0.0
2015-Jul-06 12:17N 38°02' E 023°35'0 0.0
2015-Jul-06 11:05N 38°02' E 023°35'0 0.0
2015-Jul-06 10:32N 38°02' E 023°35'0 0.1
2015-Jul-06 06:23N 38°02' E 023°35'5 6.3
2015-Jul-06 05:33N 37°56' E 023°35'8 7.8
2015-Jul-06 04:33N 37°50' E 023°40'8 8.2
2015-Jul-06 03:33N 37°42' E 023°44'8 8.4
2015-Jul-06 02:33N 37°34' E 023°44'9 9.0
2015-Jul-06 01:33N 37°25' E 023°42'404 9.2
2015-Jul-04 05:33N 36°26' E 015°21'1010.0
2015-Jul-04 04:32N 36°27' E 015°09'1110.6
2015-Jul-04 03:31N 36°28' E 014°55'1111.0
2015-Jul-04 02:34N 36°28' E 014°42'1110.9
2015-Jul-04 01:33N 36°30' E 014°29'1110.8
2015-Jul-04 00:33N 36°32' E 014°15'1110.9
2015-Jul-03 23:33N 36°35' E 014°02'1111.4
2015-Jul-03 22:34N 36°40' E 013°50'1111.2
2015-Jul-03 21:33N 36°45' E 013°37'1111.0
2015-Jul-03 20:33N 36°48' E 013°24'1111.0
2015-Jul-03 19:33N 36°51' E 013°11'1211.6
2015-Jul-03 18:33N 36°54' E 012°57'1211.6
2015-Jul-03 17:33N 36°58' E 012°43'1111.3
2015-Jul-03 16:33N 37°02' E 012°30'1111.1
2015-Jul-03 15:34N 37°05' E 012°17'2310.9
2015-Jul-03 13:27N 37°12' E 011°49'1010.8
2015-Jul-03 12:33N 37°14' E 011°37'1110.9
2015-Jul-03 11:31N 37°18' E 011°24'1611.3
2015-Jul-03 10:04N 37°23' E 011°04'611.3
2015-Jul-03 09:33N 37°25' E 010°57'1211.5
2015-Jul-03 08:32N 37°29' E 010°43'8111.4
2015-Jul-03 01:26N 37°38' E 009°01'2111.3
2015-Jul-02 23:33N 37°36' E 008°35'1111.0
2015-Jul-02 22:33N 37°35' E 008°21'8310.3
2015-Jul-02 14:29N 37°23' E 006°37'8 9.0
2015-Jul-02 13:33N 37°22' E 006°26'10 8.8
2015-Jul-02 12:27N 37°22' E 006°14'11 9.1
2015-Jul-02 11:12N 37°20' E 005°60'6 9.2
2015-Jul-02 10:32N 37°19' E 005°52'6410.5
2015-Jul-02 04:25N 37°08' E 004°33'1310.7
2015-Jul-02 03:11N 37°07' E 004°17'710.6
2015-Jul-02 02:32N 37°06' E 004°08'1010.4
2015-Jul-02 01:33N 37°05' E 003°56'1210.4
2015-Jul-02 00:24N 37°03' E 003°41'910.6
2015-Jul-01 23:31N 37°02' E 003°29'1010.1
2015-Jul-01 22:32N 37°00' E 003°17'1110.4
2015-Jul-01 21:28N 36°58' E 003°03'1010.7
2015-Jul-01 20:33N 36°56' E 002°51'1111.2
2015-Jul-01 19:33N 36°55' E 002°37'1111.1
2015-Jul-01 18:33N 36°53' E 002°24'1110.9
2015-Jul-01 17:33N 36°52' E 002°10'1111.2
2015-Jul-01 16:33N 36°50' E 001°56'1111.1
2015-Jul-01 15:33N 36°48' E 001°43'1111.4
2015-Jul-01 14:33N 36°46' E 001°29'1211.2
2015-Jul-01 13:31N 36°45' E 001°14'1111.3
2015-Jul-01 12:33N 36°43' E 001°01'3511.5
2015-Jul-01 09:30N 36°37' E 000°18'1111.4
2015-Jul-01 08:32N 36°36' E 000°04'1111.5
2015-Jul-01 07:33N 36°35' W 000°10'1611.4
2015-Jul-01 06:10N 36°33' W 000°29'711.2
2015-Jul-01 05:33N 36°32' W 000°38'5511.0
2015-Jul-01 00:30N 36°24' W 001°46'17011.9
2015-Jun-30 10:15N 35°57' W 005°14'4 6.0
2015-Jun-30 09:31N 35°54' W 005°18'0 0.0
2015-Jun-30 08:31N 35°54' W 005°18'0 0.0
2015-Jun-30 07:31N 35°54' W 005°18'1 1.2
2015-Jun-30 06:34N 35°55' W 005°19'7 6.7
2015-Jun-30 05:33N 35°57' W 005°27'56 9.2
2015-Jun-29 23:30N 35°59' W 006°36'9 9.6
2015-Jun-29 22:33N 36°01' W 006°46'22 9.6
2015-Jun-29 20:15N 36°07' W 007°13'6 9.2
2015-Jun-29 19:33N 36°08' W 007°20'112110.6
2015-Jun-29 18:33N 36°47' W 009°31'3 3.3
2015-Jun-29 17:32N 36°50' W 009°33'3 3.0
2015-Jun-29 16:33N 36°52' W 009°34'3 3.0
2015-Jun-29 15:33N 36°55' W 009°36'3 3.2
2015-Jun-29 14:33N 36°58' W 009°36'4619.1
2015-Jun-29 12:10N 36°29' W 008°54'610.1
2015-Jun-29 11:31N 36°31' W 009°01'1110.2
2015-Jun-29 10:29N 36°34' W 009°14'910.0
2015-Jun-29 09:33N 36°39' W 009°23'1110.6
2015-Jun-29 08:33N 36°47' W 009°32'1010.0
2015-Jun-29 07:33N 36°57' W 009°36'1010.2
2015-Jun-29 06:34N 37°07' W 009°39'1010.3
2015-Jun-29 05:34N 37°17' W 009°41'1110.6
2015-Jun-29 04:33N 37°27' W 009°45'1110.7
2015-Jun-29 03:34N 37°37' W 009°48'1110.6
2015-Jun-29 02:34N 37°48' W 009°51'1010.3
2015-Jun-29 01:33N 37°58' W 009°54'1010.3
2015-Jun-29 00:33N 38°08' W 009°57'1010.2
2015-Jun-28 23:33N 38°18' W 009°59'1010.2
2015-Jun-28 22:33N 38°28' W 010°03'1010.3
2015-Jun-28 21:33N 38°38' W 010°05'1110.5
2015-Jun-28 20:33N 38°48' W 010°07'1010.5
2015-Jun-28 19:33N 38°59' W 010°07'1110.7
2015-Jun-28 18:33N 39°09' W 010°07'1111.0
2015-Jun-28 17:33N 39°20' W 010°07'1110.8
2015-Jun-28 16:33N 39°31' W 010°07'1110.8
2015-Jun-28 15:34N 39°42' W 010°08'1110.7
2015-Jun-28 14:33N 39°53' W 010°08'1110.8
2015-Jun-28 13:33N 40°04' W 010°07'4310.7
2015-Jun-28 09:29N 40°47' W 010°08'  
Track history (hours):
 
Tides and Currents Weather Stations Pressure Air Temp Water Temp Dewpoint Dewpoint Depression Visibility Wind Speed Wind Dir Waves Ship Positions

MV Moseldijk

Last reported at 2015-Jul-07 13:11 UTC. Time now 2015-Jul-08 04:23 UTC.
Position N 38°02' E 023°35'.

Length 90 m; draft 5.8 m.

Type: Cargo ship. MMSI: 246644000.

Date/timePositionNaut miles runAvg speedWind from/ knotsBaromVisibWave heightAir tempDewpointWater temp
2015-Jul-07 13:11N 38°02' E 023°35'0 0.0
2015-Jul-07 04:17N 38°02' E 023°35'0 0.0
2015-Jul-07 03:32N 38°02' E 023°35'0 0.0
2015-Jul-07 01:32N 38°02' E 023°35'0 0.0
2015-Jul-07 00:29N 38°02' E 023°35'0 0.0
2015-Jul-06 23:26N 38°02' E 023°35'0 0.0
2015-Jul-06 20:26N 38°02' E 023°35'0 0.0
2015-Jul-06 19:26N 38°02' E 023°35'0 0.0
2015-Jul-06 12:17N 38°02' E 023°35'0 0.0
2015-Jul-06 11:05N 38°02' E 023°35'0 0.0
2015-Jul-06 10:32N 38°02' E 023°35'0 0.1
2015-Jul-06 06:23N 38°02' E 023°35'5 6.3
2015-Jul-06 05:33N 37°56' E 023°35'8 7.8
2015-Jul-06 04:33N 37°50' E 023°40'8 8.2
2015-Jul-06 03:33N 37°42' E 023°44'8 8.4
2015-Jul-06 02:33N 37°34' E 023°44'9 9.0
2015-Jul-06 01:33N 37°25' E 023°42'404 9.2
2015-Jul-04 05:33N 36°26' E 015°21'1010.0
2015-Jul-04 04:32N 36°27' E 015°09'1110.6
2015-Jul-04 03:31N 36°28' E 014°55'1111.0
2015-Jul-04 02:34N 36°28' E 014°42'1110.9
2015-Jul-04 01:33N 36°30' E 014°29'1110.8
2015-Jul-04 00:33N 36°32' E 014°15'1110.9
2015-Jul-03 23:33N 36°35' E 014°02'1111.4
2015-Jul-03 22:34N 36°40' E 013°50'1111.2
2015-Jul-03 21:33N 36°45' E 013°37'1111.0
2015-Jul-03 20:33N 36°48' E 013°24'1111.0
2015-Jul-03 19:33N 36°51' E 013°11'1211.6
2015-Jul-03 18:33N 36°54' E 012°57'1211.6
2015-Jul-03 17:33N 36°58' E 012°43'1111.3
2015-Jul-03 16:33N 37°02' E 012°30'1111.1
2015-Jul-03 15:34N 37°05' E 012°17'2310.9
2015-Jul-03 13:27N 37°12' E 011°49'1010.8
2015-Jul-03 12:33N 37°14' E 011°37'1110.9
2015-Jul-03 11:31N 37°18' E 011°24'1611.3
2015-Jul-03 10:04N 37°23' E 011°04'611.3
2015-Jul-03 09:33N 37°25' E 010°57'1211.5
2015-Jul-03 08:32N 37°29' E 010°43'8111.4
2015-Jul-03 01:26N 37°38' E 009°01'2111.3
2015-Jul-02 23:33N 37°36' E 008°35'1111.0
2015-Jul-02 22:33N 37°35' E 008°21'8310.3
2015-Jul-02 14:29N 37°23' E 006°37'8 9.0
2015-Jul-02 13:33N 37°22' E 006°26'10 8.8
2015-Jul-02 12:27N 37°22' E 006°14'11 9.1
2015-Jul-02 11:12N 37°20' E 005°60'6 9.2
2015-Jul-02 10:32N 37°19' E 005°52'6410.5
2015-Jul-02 04:25N 37°08' E 004°33'1310.7
2015-Jul-02 03:11N 37°07' E 004°17'710.6
2015-Jul-02 02:32N 37°06' E 004°08'1010.4
2015-Jul-02 01:33N 37°05' E 003°56'1210.4
2015-Jul-02 00:24N 37°03' E 003°41'910.6
2015-Jul-01 23:31N 37°02' E 003°29'1010.1
2015-Jul-01 22:32N 37°00' E 003°17'1110.4
2015-Jul-01 21:28N 36°58' E 003°03'1010.7
2015-Jul-01 20:33N 36°56' E 002°51'1111.2
2015-Jul-01 19:33N 36°55' E 002°37'1111.1
2015-Jul-01 18:33N 36°53' E 002°24'1110.9
2015-Jul-01 17:33N 36°52' E 002°10'1111.2
2015-Jul-01 16:33N 36°50' E 001°56'1111.1
2015-Jul-01 15:33N 36°48' E 001°43'1111.4
2015-Jul-01 14:33N 36°46' E 001°29'1211.2
2015-Jul-01 13:31N 36°45' E 001°14'1111.3
2015-Jul-01 12:33N 36°43' E 001°01'3511.5
2015-Jul-01 09:30N 36°37' E 000°18'1111.4
2015-Jul-01 08:32N 36°36' E 000°04'1111.5
2015-Jul-01 07:33N 36°35' W 000°10'1611.4
2015-Jul-01 06:10N 36°33' W 000°29'711.2
2015-Jul-01 05:33N 36°32' W 000°38'5511.0
2015-Jul-01 00:30N 36°24' W 001°46'17011.9
2015-Jun-30 10:15N 35°57' W 005°14'4 6.0
2015-Jun-30 09:31N 35°54' W 005°18'0 0.0
2015-Jun-30 08:31N 35°54' W 005°18'0 0.0
2015-Jun-30 07:31N 35°54' W 005°18'1 1.2
2015-Jun-30 06:34N 35°55' W 005°19'7 6.7
2015-Jun-30 05:33N 35°57' W 005°27'56 9.2
2015-Jun-29 23:30N 35°59' W 006°36'9 9.6
2015-Jun-29 22:33N 36°01' W 006°46'22 9.6
2015-Jun-29 20:15N 36°07' W 007°13'6 9.2
2015-Jun-29 19:33N 36°08' W 007°20'112110.6
2015-Jun-29 18:33N 36°47' W 009°31'3 3.3
2015-Jun-29 17:32N 36°50' W 009°33'3 3.0
2015-Jun-29 16:33N 36°52' W 009°34'3 3.0
2015-Jun-29 15:33N 36°55' W 009°36'3 3.2
2015-Jun-29 14:33N 36°58' W 009°36'4619.1
2015-Jun-29 12:10N 36°29' W 008°54'610.1
2015-Jun-29 11:31N 36°31' W 009°01'1110.2
2015-Jun-29 10:29N 36°34' W 009°14'910.0
2015-Jun-29 09:33N 36°39' W 009°23'1110.6
2015-Jun-29 08:33N 36°47' W 009°32'1010.0
2015-Jun-29 07:33N 36°57' W 009°36'1010.2
2015-Jun-29 06:34N 37°07' W 009°39'1010.3
2015-Jun-29 05:34N 37°17' W 009°41'1110.6
2015-Jun-29 04:33N 37°27' W 009°45'1110.7
2015-Jun-29 03:34N 37°37' W 009°48'1110.6
2015-Jun-29 02:34N 37°48' W 009°51'1010.3
2015-Jun-29 01:33N 37°58' W 009°54'1010.3
2015-Jun-29 00:33N 38°08' W 009°57'1010.2
2015-Jun-28 23:33N 38°18' W 009°59'1010.2
2015-Jun-28 22:33N 38°28' W 010°03'1010.3
2015-Jun-28 21:33N 38°38' W 010°05'1110.5
2015-Jun-28 20:33N 38°48' W 010°07'1010.5
2015-Jun-28 19:33N 38°59' W 010°07'1110.7
2015-Jun-28 18:33N 39°09' W 010°07'1111.0
2015-Jun-28 17:33N 39°20' W 010°07'1110.8
2015-Jun-28 16:33N 39°31' W 010°07'1110.8
2015-Jun-28 15:34N 39°42' W 010°08'1110.7
2015-Jun-28 14:33N 39°53' W 010°08'1110.8
2015-Jun-28 13:33N 40°04' W 010°07'4310.7
2015-Jun-28 09:29N 40°47' W 010°08'  

Dump ship's entire track history